sensor_id;sensor_type;location;lat;lon;timestamp;P1;durP1;ratioP1;P2;durP2;ratioP2
22894;SDS011;11614;52.494;6.976;2023-03-14T00:03:39;6.67;;;1.40;;
22894;SDS011;11614;52.494;6.976;2023-03-14T00:06:05;6.87;;;1.90;;
22894;SDS011;11614;52.494;6.976;2023-03-14T00:08:31;7.63;;;1.90;;
22894;SDS011;11614;52.494;6.976;2023-03-14T00:10:57;9.30;;;2.27;;
22894;SDS011;11614;52.494;6.976;2023-03-14T00:13:23;6.23;;;2.33;;
22894;SDS011;11614;52.494;6.976;2023-03-14T00:15:49;6.67;;;2.03;;
22894;SDS011;11614;52.494;6.976;2023-03-14T00:18:15;5.50;;;1.47;;
22894;SDS011;11614;52.494;6.976;2023-03-14T00:20:41;3.67;;;1.40;;
22894;SDS011;11614;52.494;6.976;2023-03-14T00:23:07;5.20;;;1.83;;
22894;SDS011;11614;52.494;6.976;2023-03-14T00:25:34;5.53;;;1.97;;
22894;SDS011;11614;52.494;6.976;2023-03-14T00:28:00;6.23;;;2.00;;
22894;SDS011;11614;52.494;6.976;2023-03-14T00:30:26;5.90;;;1.47;;
22894;SDS011;11614;52.494;6.976;2023-03-14T00:32:52;5.00;;;1.57;;
22894;SDS011;11614;52.494;6.976;2023-03-14T00:35:18;3.73;;;1.00;;
22894;SDS011;11614;52.494;6.976;2023-03-14T00:37:44;5.73;;;1.63;;
22894;SDS011;11614;52.494;6.976;2023-03-14T00:40:10;5.60;;;1.97;;
22894;SDS011;11614;52.494;6.976;2023-03-14T00:42:36;5.27;;;1.50;;
22894;SDS011;11614;52.494;6.976;2023-03-14T00:45:02;6.60;;;2.10;;
22894;SDS011;11614;52.494;6.976;2023-03-14T00:47:28;5.73;;;2.17;;
22894;SDS011;11614;52.494;6.976;2023-03-14T00:49:54;4.63;;;1.00;;
22894;SDS011;11614;52.494;6.976;2023-03-14T00:52:20;6.87;;;1.43;;
22894;SDS011;11614;52.494;6.976;2023-03-14T00:54:46;4.93;;;1.17;;
22894;SDS011;11614;52.494;6.976;2023-03-14T00:57:12;2.40;;;1.13;;
22894;SDS011;11614;52.494;6.976;2023-03-14T00:59:38;2.93;;;0.87;;
22894;SDS011;11614;52.494;6.976;2023-03-14T01:02:04;3.57;;;0.90;;
22894;SDS011;11614;52.494;6.976;2023-03-14T01:04:30;5.63;;;1.93;;
22894;SDS011;11614;52.494;6.976;2023-03-14T01:06:56;11.53;;;1.73;;
22894;SDS011;11614;52.494;6.976;2023-03-14T01:09:22;3.10;;;1.20;;
22894;SDS011;11614;52.494;6.976;2023-03-14T01:11:48;3.70;;;1.00;;
22894;SDS011;11614;52.494;6.976;2023-03-14T01:14:14;4.67;;;1.33;;
22894;SDS011;11614;52.494;6.976;2023-03-14T01:16:40;4.30;;;1.50;;
22894;SDS011;11614;52.494;6.976;2023-03-14T01:19:06;5.57;;;1.53;;
22894;SDS011;11614;52.494;6.976;2023-03-14T01:21:34;9.00;;;1.40;;
22894;SDS011;11614;52.494;6.976;2023-03-14T01:24:01;5.50;;;1.30;;
22894;SDS011;11614;52.494;6.976;2023-03-14T01:26:29;7.00;;;1.20;;
22894;SDS011;11614;52.494;6.976;2023-03-14T01:28:55;3.13;;;1.17;;
22894;SDS011;11614;52.494;6.976;2023-03-14T01:31:21;7.23;;;1.63;;
22894;SDS011;11614;52.494;6.976;2023-03-14T01:33:47;4.30;;;1.50;;
22894;SDS011;11614;52.494;6.976;2023-03-14T01:36:13;4.03;;;1.00;;
22894;SDS011;11614;52.494;6.976;2023-03-14T01:38:40;2.77;;;0.90;;
22894;SDS011;11614;52.494;6.976;2023-03-14T01:41:07;4.57;;;1.43;;
22894;SDS011;11614;52.494;6.976;2023-03-14T01:43:33;4.03;;;1.40;;
22894;SDS011;11614;52.494;6.976;2023-03-14T01:48:28;4.83;;;1.50;;
22894;SDS011;11614;52.494;6.976;2023-03-14T01:50:59;3.97;;;1.43;;
22894;SDS011;11614;52.494;6.976;2023-03-14T01:53:26;3.93;;;1.50;;
22894;SDS011;11614;52.494;6.976;2023-03-14T01:55:52;3.23;;;1.10;;
22894;SDS011;11614;52.494;6.976;2023-03-14T01:58:21;5.50;;;1.13;;
22894;SDS011;11614;52.494;6.976;2023-03-14T02:00:49;7.70;;;1.43;;
22894;SDS011;11614;52.494;6.976;2023-03-14T02:03:16;4.43;;;1.43;;
22894;SDS011;11614;52.494;6.976;2023-03-14T02:05:42;5.30;;;1.17;;
22894;SDS011;11614;52.494;6.976;2023-03-14T02:08:19;4.67;;;1.17;;
22894;SDS011;11614;52.494;6.976;2023-03-14T02:10:46;4.63;;;1.57;;
22894;SDS011;11614;52.494;6.976;2023-03-14T02:13:14;3.07;;;0.63;;
22894;SDS011;11614;52.494;6.976;2023-03-14T02:15:42;4.53;;;1.50;;
22894;SDS011;11614;52.494;6.976;2023-03-14T02:18:09;7.50;;;2.37;;
22894;SDS011;11614;52.494;6.976;2023-03-14T02:23:23;3.07;;;1.40;;
22894;SDS011;11614;52.494;6.976;2023-03-14T02:26:07;5.83;;;1.90;;
22894;SDS011;11614;52.494;6.976;2023-03-14T02:28:36;3.43;;;1.20;;
22894;SDS011;11614;52.494;6.976;2023-03-14T02:31:02;5.30;;;0.87;;
22894;SDS011;11614;52.494;6.976;2023-03-14T02:33:28;3.33;;;1.10;;
22894;SDS011;11614;52.494;6.976;2023-03-14T02:36:01;6.77;;;1.97;;
22894;SDS011;11614;52.494;6.976;2023-03-14T02:41:18;6.60;;;1.27;;
22894;SDS011;11614;52.494;6.976;2023-03-14T02:43:44;3.13;;;1.00;;
22894;SDS011;11614;52.494;6.976;2023-03-14T02:46:10;5.87;;;1.20;;
22894;SDS011;11614;52.494;6.976;2023-03-14T02:48:41;2.00;;;0.50;;
22894;SDS011;11614;52.494;6.976;2023-03-14T02:51:08;6.03;;;1.03;;
22894;SDS011;11614;52.494;6.976;2023-03-14T02:53:35;2.83;;;0.60;;
22894;SDS011;11614;52.494;6.976;2023-03-14T02:56:02;3.10;;;0.60;;
22894;SDS011;11614;52.494;6.976;2023-03-14T02:58:28;4.43;;;0.93;;
22894;SDS011;11614;52.494;6.976;2023-03-14T03:00:54;4.50;;;0.77;;
22894;SDS011;11614;52.494;6.976;2023-03-14T03:03:20;3.57;;;0.60;;
22894;SDS011;11614;52.494;6.976;2023-03-14T03:05:49;3.77;;;0.80;;
22894;SDS011;11614;52.494;6.976;2023-03-14T03:08:16;4.37;;;0.90;;
22894;SDS011;11614;52.494;6.976;2023-03-14T03:10:42;2.30;;;0.87;;
22894;SDS011;11614;52.494;6.976;2023-03-14T03:13:08;2.20;;;0.77;;
22894;SDS011;11614;52.494;6.976;2023-03-14T03:15:34;3.37;;;1.73;;
22894;SDS011;11614;52.494;6.976;2023-03-14T03:18:00;4.73;;;1.23;;
22894;SDS011;11614;52.494;6.976;2023-03-14T03:20:26;4.00;;;1.10;;
22894;SDS011;11614;52.494;6.976;2023-03-14T03:22:52;6.67;;;1.67;;
22894;SDS011;11614;52.494;6.976;2023-03-14T03:25:18;3.60;;;0.90;;
22894;SDS011;11614;52.494;6.976;2023-03-14T03:27:44;3.90;;;0.60;;
22894;SDS011;11614;52.494;6.976;2023-03-14T03:30:10;4.13;;;0.83;;
22894;SDS011;11614;52.494;6.976;2023-03-14T03:32:36;3.80;;;1.03;;
22894;SDS011;11614;52.494;6.976;2023-03-14T03:35:02;6.97;;;1.20;;
22894;SDS011;11614;52.494;6.976;2023-03-14T03:37:32;3.03;;;1.03;;
22894;SDS011;11614;52.494;6.976;2023-03-14T03:39:59;7.70;;;1.30;;
22894;SDS011;11614;52.494;6.976;2023-03-14T03:42:28;2.10;;;0.20;;
22894;SDS011;11614;52.494;6.976;2023-03-14T03:44:54;4.47;;;1.00;;
22894;SDS011;11614;52.494;6.976;2023-03-14T03:47:20;3.97;;;0.90;;
22894;SDS011;11614;52.494;6.976;2023-03-14T03:49:46;3.60;;;1.03;;
22894;SDS011;11614;52.494;6.976;2023-03-14T03:52:12;3.73;;;0.90;;
22894;SDS011;11614;52.494;6.976;2023-03-14T03:54:38;4.03;;;1.20;;
22894;SDS011;11614;52.494;6.976;2023-03-14T03:57:04;4.37;;;0.67;;
22894;SDS011;11614;52.494;6.976;2023-03-14T03:59:30;3.30;;;0.73;;
22894;SDS011;11614;52.494;6.976;2023-03-14T04:01:56;1.17;;;0.37;;
22894;SDS011;11614;52.494;6.976;2023-03-14T04:04:22;3.57;;;0.70;;
22894;SDS011;11614;52.494;6.976;2023-03-14T04:06:48;3.43;;;0.80;;
22894;SDS011;11614;52.494;6.976;2023-03-14T04:09:14;2.10;;;0.80;;
22894;SDS011;11614;52.494;6.976;2023-03-14T04:11:40;2.87;;;0.63;;
22894;SDS011;11614;52.494;6.976;2023-03-14T04:14:06;3.17;;;0.60;;
22894;SDS011;11614;52.494;6.976;2023-03-14T04:16:32;4.57;;;1.00;;
22894;SDS011;11614;52.494;6.976;2023-03-14T04:18:58;4.93;;;1.20;;
22894;SDS011;11614;52.494;6.976;2023-03-14T04:21:24;3.13;;;0.50;;
22894;SDS011;11614;52.494;6.976;2023-03-14T04:23:50;3.87;;;1.67;;
22894;SDS011;11614;52.494;6.976;2023-03-14T04:26:16;5.47;;;1.00;;
22894;SDS011;11614;52.494;6.976;2023-03-14T04:28:42;2.83;;;0.53;;
22894;SDS011;11614;52.494;6.976;2023-03-14T04:31:08;3.37;;;0.57;;
22894;SDS011;11614;52.494;6.976;2023-03-14T04:33:34;2.93;;;0.90;;
22894;SDS011;11614;52.494;6.976;2023-03-14T04:36:01;3.17;;;0.90;;
22894;SDS011;11614;52.494;6.976;2023-03-14T04:38:27;5.20;;;1.13;;
22894;SDS011;11614;52.494;6.976;2023-03-14T04:40:53;5.23;;;1.10;;
22894;SDS011;11614;52.494;6.976;2023-03-14T04:43:19;6.30;;;0.87;;
22894;SDS011;11614;52.494;6.976;2023-03-14T04:45:45;4.93;;;1.20;;
22894;SDS011;11614;52.494;6.976;2023-03-14T04:48:11;5.47;;;0.73;;
22894;SDS011;11614;52.494;6.976;2023-03-14T04:50:37;3.93;;;0.53;;
22894;SDS011;11614;52.494;6.976;2023-03-14T04:53:03;6.50;;;1.13;;
22894;SDS011;11614;52.494;6.976;2023-03-14T04:55:30;5.53;;;1.33;;
22894;SDS011;11614;52.494;6.976;2023-03-14T04:57:57;3.27;;;0.70;;
22894;SDS011;11614;52.494;6.976;2023-03-14T05:00:23;2.10;;;0.40;;
22894;SDS011;11614;52.494;6.976;2023-03-14T05:02:49;7.30;;;1.43;;
22894;SDS011;11614;52.494;6.976;2023-03-14T05:05:14;3.77;;;0.90;;
22894;SDS011;11614;52.494;6.976;2023-03-14T05:07:40;8.00;;;1.00;;
22894;SDS011;11614;52.494;6.976;2023-03-14T05:10:07;2.50;;;0.47;;
22894;SDS011;11614;52.494;6.976;2023-03-14T05:12:33;5.10;;;0.70;;
22894;SDS011;11614;52.494;6.976;2023-03-14T05:14:59;2.87;;;0.77;;
22894;SDS011;11614;52.494;6.976;2023-03-14T05:17:25;4.00;;;1.03;;
22894;SDS011;11614;52.494;6.976;2023-03-14T05:19:50;3.57;;;0.60;;
22894;SDS011;11614;52.494;6.976;2023-03-14T05:22:16;4.23;;;1.17;;
22894;SDS011;11614;52.494;6.976;2023-03-14T05:24:42;5.10;;;0.93;;
22894;SDS011;11614;52.494;6.976;2023-03-14T05:27:08;3.60;;;0.40;;
22894;SDS011;11614;52.494;6.976;2023-03-14T05:29:34;7.63;;;0.83;;
22894;SDS011;11614;52.494;6.976;2023-03-14T05:31:59;3.60;;;0.70;;
22894;SDS011;11614;52.494;6.976;2023-03-14T05:34:26;3.43;;;0.93;;
22894;SDS011;11614;52.494;6.976;2023-03-14T05:36:52;4.60;;;1.00;;
22894;SDS011;11614;52.494;6.976;2023-03-14T05:39:17;5.17;;;0.50;;
22894;SDS011;11614;52.494;6.976;2023-03-14T05:41:43;3.30;;;0.60;;
22894;SDS011;11614;52.494;6.976;2023-03-14T05:44:09;3.63;;;0.73;;
22894;SDS011;11614;52.494;6.976;2023-03-14T05:46:38;3.70;;;0.63;;
22894;SDS011;11614;52.494;6.976;2023-03-14T05:49:04;1.93;;;0.60;;
22894;SDS011;11614;52.494;6.976;2023-03-14T05:51:30;5.10;;;0.73;;
22894;SDS011;11614;52.494;6.976;2023-03-14T05:53:56;3.13;;;0.60;;
22894;SDS011;11614;52.494;6.976;2023-03-14T05:56:21;8.00;;;1.10;;
22894;SDS011;11614;52.494;6.976;2023-03-14T05:58:47;2.13;;;0.83;;
22894;SDS011;11614;52.494;6.976;2023-03-14T06:01:13;2.57;;;0.50;;
22894;SDS011;11614;52.494;6.976;2023-03-14T06:03:39;3.07;;;0.50;;
22894;SDS011;11614;52.494;6.976;2023-03-14T06:06:05;4.23;;;0.93;;
22894;SDS011;11614;52.494;6.976;2023-03-14T06:08:31;2.73;;;0.60;;
22894;SDS011;11614;52.494;6.976;2023-03-14T06:10:57;5.53;;;0.47;;
22894;SDS011;11614;52.494;6.976;2023-03-14T06:13:23;4.93;;;1.03;;
22894;SDS011;11614;52.494;6.976;2023-03-14T06:15:49;8.77;;;1.10;;
22894;SDS011;11614;52.494;6.976;2023-03-14T06:18:15;2.13;;;0.63;;
22894;SDS011;11614;52.494;6.976;2023-03-14T06:20:40;4.27;;;0.43;;
22894;SDS011;11614;52.494;6.976;2023-03-14T06:23:07;3.80;;;0.57;;
22894;SDS011;11614;52.494;6.976;2023-03-14T06:25:34;3.03;;;0.57;;
22894;SDS011;11614;52.494;6.976;2023-03-14T06:28:00;5.23;;;1.03;;
22894;SDS011;11614;52.494;6.976;2023-03-14T06:30:26;3.10;;;0.67;;
22894;SDS011;11614;52.494;6.976;2023-03-14T06:32:52;4.43;;;0.40;;
22894;SDS011;11614;52.494;6.976;2023-03-14T06:35:18;3.37;;;0.63;;
22894;SDS011;11614;52.494;6.976;2023-03-14T06:37:44;5.97;;;1.10;;
22894;SDS011;11614;52.494;6.976;2023-03-14T06:40:10;3.50;;;0.70;;
22894;SDS011;11614;52.494;6.976;2023-03-14T06:42:46;4.97;;;0.80;;
22894;SDS011;11614;52.494;6.976;2023-03-14T06:45:12;3.40;;;0.50;;
22894;SDS011;11614;52.494;6.976;2023-03-14T06:47:38;2.47;;;0.53;;
22894;SDS011;11614;52.494;6.976;2023-03-14T06:50:05;1.13;;;0.50;;
22894;SDS011;11614;52.494;6.976;2023-03-14T06:52:31;5.00;;;0.90;;
22894;SDS011;11614;52.494;6.976;2023-03-14T06:54:57;4.33;;;0.67;;
22894;SDS011;11614;52.494;6.976;2023-03-14T06:57:23;3.83;;;0.87;;
22894;SDS011;11614;52.494;6.976;2023-03-14T06:59:49;4.13;;;0.87;;
22894;SDS011;11614;52.494;6.976;2023-03-14T07:02:15;5.60;;;0.70;;
22894;SDS011;11614;52.494;6.976;2023-03-14T07:04:41;4.97;;;1.03;;
22894;SDS011;11614;52.494;6.976;2023-03-14T07:07:07;2.80;;;0.30;;
22894;SDS011;11614;52.494;6.976;2023-03-14T07:09:33;5.03;;;1.60;;
22894;SDS011;11614;52.494;6.976;2023-03-14T07:11:59;2.60;;;0.77;;
22894;SDS011;11614;52.494;6.976;2023-03-14T07:14:25;2.40;;;0.73;;
22894;SDS011;11614;52.494;6.976;2023-03-14T07:16:51;4.57;;;1.17;;
22894;SDS011;11614;52.494;6.976;2023-03-14T07:19:17;2.93;;;0.50;;
22894;SDS011;11614;52.494;6.976;2023-03-14T07:21:43;4.37;;;1.10;;
22894;SDS011;11614;52.494;6.976;2023-03-14T07:24:09;3.87;;;0.80;;
22894;SDS011;11614;52.494;6.976;2023-03-14T07:26:35;4.00;;;0.83;;
22894;SDS011;11614;52.494;6.976;2023-03-14T07:29:01;1.70;;;0.40;;
22894;SDS011;11614;52.494;6.976;2023-03-14T07:31:28;2.43;;;0.63;;
22894;SDS011;11614;52.494;6.976;2023-03-14T07:33:54;3.93;;;0.40;;
22894;SDS011;11614;52.494;6.976;2023-03-14T07:36:20;4.10;;;0.60;;
22894;SDS011;11614;52.494;6.976;2023-03-14T07:38:47;2.27;;;0.47;;
22894;SDS011;11614;52.494;6.976;2023-03-14T07:41:13;4.90;;;0.63;;
22894;SDS011;11614;52.494;6.976;2023-03-14T07:43:39;5.07;;;0.90;;
22894;SDS011;11614;52.494;6.976;2023-03-14T07:46:05;5.40;;;0.83;;
22894;SDS011;11614;52.494;6.976;2023-03-14T07:48:31;2.90;;;0.70;;
22894;SDS011;11614;52.494;6.976;2023-03-14T07:50:57;1.47;;;0.47;;
22894;SDS011;11614;52.494;6.976;2023-03-14T07:53:24;3.90;;;1.10;;
22894;SDS011;11614;52.494;6.976;2023-03-14T07:55:53;4.13;;;0.93;;
22894;SDS011;11614;52.494;6.976;2023-03-14T07:58:19;3.17;;;1.17;;
22894;SDS011;11614;52.494;6.976;2023-03-14T08:00:46;2.53;;;0.90;;
22894;SDS011;11614;52.494;6.976;2023-03-14T08:03:12;4.63;;;1.83;;
22894;SDS011;11614;52.494;6.976;2023-03-14T08:05:39;3.43;;;0.97;;
22894;SDS011;11614;52.494;6.976;2023-03-14T08:08:06;4.63;;;1.57;;
22894;SDS011;11614;52.494;6.976;2023-03-14T08:10:32;1.70;;;0.70;;
22894;SDS011;11614;52.494;6.976;2023-03-14T08:12:59;1.73;;;0.40;;
22894;SDS011;11614;52.494;6.976;2023-03-14T08:15:26;0.93;;;0.10;;
22894;SDS011;11614;52.494;6.976;2023-03-14T08:17:53;0.47;;;0.10;;
22894;SDS011;11614;52.494;6.976;2023-03-14T08:20:20;0.67;;;0.10;;
22894;SDS011;11614;52.494;6.976;2023-03-14T08:22:48;0.40;;;0.17;;
22894;SDS011;11614;52.494;6.976;2023-03-14T08:25:14;1.57;;;0.20;;
22894;SDS011;11614;52.494;6.976;2023-03-14T08:27:40;1.23;;;0.30;;
22894;SDS011;11614;52.494;6.976;2023-03-14T08:30:08;0.80;;;0.10;;
22894;SDS011;11614;52.494;6.976;2023-03-14T08:32:35;1.17;;;0.20;;
22894;SDS011;11614;52.494;6.976;2023-03-14T08:35:01;0.33;;;0.10;;
22894;SDS011;11614;52.494;6.976;2023-03-14T08:37:27;2.37;;;0.30;;
22894;SDS011;11614;52.494;6.976;2023-03-14T08:39:53;1.83;;;0.40;;
22894;SDS011;11614;52.494;6.976;2023-03-14T08:42:19;3.87;;;0.40;;
22894;SDS011;11614;52.494;6.976;2023-03-14T08:44:45;3.13;;;0.20;;
22894;SDS011;11614;52.494;6.976;2023-03-14T08:47:11;1.03;;;0.10;;
22894;SDS011;11614;52.494;6.976;2023-03-14T08:49:37;0.73;;;0.10;;
22894;SDS011;11614;52.494;6.976;2023-03-14T08:52:04;2.77;;;0.30;;
22894;SDS011;11614;52.494;6.976;2023-03-14T08:54:30;0.60;;;0.07;;
22894;SDS011;11614;52.494;6.976;2023-03-14T08:56:56;3.03;;;0.17;;
22894;SDS011;11614;52.494;6.976;2023-03-14T08:59:22;1.37;;;0.10;;
22894;SDS011;11614;52.494;6.976;2023-03-14T09:01:48;1.17;;;0.30;;
22894;SDS011;11614;52.494;6.976;2023-03-14T09:04:14;1.00;;;0.20;;
22894;SDS011;11614;52.494;6.976;2023-03-14T09:06:40;3.93;;;0.60;;
22894;SDS011;11614;52.494;6.976;2023-03-14T09:09:06;1.27;;;0.43;;
22894;SDS011;11614;52.494;6.976;2023-03-14T09:11:32;1.90;;;0.20;;
22894;SDS011;11614;52.494;6.976;2023-03-14T09:13:58;2.43;;;0.10;;
22894;SDS011;11614;52.494;6.976;2023-03-14T09:16:24;1.13;;;0.10;;
22894;SDS011;11614;52.494;6.976;2023-03-14T09:18:50;0.40;;;0.10;;
22894;SDS011;11614;52.494;6.976;2023-03-14T09:21:19;1.30;;;0.13;;
22894;SDS011;11614;52.494;6.976;2023-03-14T09:23:45;1.97;;;0.10;;
22894;SDS011;11614;52.494;6.976;2023-03-14T09:26:11;1.10;;;0.10;;
22894;SDS011;11614;52.494;6.976;2023-03-14T09:28:37;1.10;;;0.10;;
22894;SDS011;11614;52.494;6.976;2023-03-14T09:31:07;1.23;;;0.10;;
22894;SDS011;11614;52.494;6.976;2023-03-14T09:33:34;1.03;;;0.20;;
22894;SDS011;11614;52.494;6.976;2023-03-14T09:36:00;0.30;;;0.10;;
22894;SDS011;11614;52.494;6.976;2023-03-14T09:38:26;1.83;;;0.20;;
22894;SDS011;11614;52.494;6.976;2023-03-14T09:40:53;0.87;;;0.20;;
22894;SDS011;11614;52.494;6.976;2023-03-14T09:43:19;1.37;;;0.27;;
22894;SDS011;11614;52.494;6.976;2023-03-14T09:45:48;2.03;;;0.23;;
22894;SDS011;11614;52.494;6.976;2023-03-14T09:48:16;2.43;;;0.20;;
22894;SDS011;11614;52.494;6.976;2023-03-14T09:50:47;0.60;;;0.20;;
22894;SDS011;11614;52.494;6.976;2023-03-14T09:53:16;1.37;;;0.20;;
22894;SDS011;11614;52.494;6.976;2023-03-14T09:55:49;1.50;;;0.10;;
22894;SDS011;11614;52.494;6.976;2023-03-14T09:58:21;1.40;;;0.10;;
22894;SDS011;11614;52.494;6.976;2023-03-14T10:00:49;2.23;;;0.10;;
22894;SDS011;11614;52.494;6.976;2023-03-14T10:05:42;0.30;;;0.07;;
22894;SDS011;11614;52.494;6.976;2023-03-14T10:08:11;1.40;;;0.30;;
22894;SDS011;11614;52.494;6.976;2023-03-14T10:10:37;4.23;;;0.60;;
22894;SDS011;11614;52.494;6.976;2023-03-14T10:13:16;2.87;;;0.30;;
22894;SDS011;11614;52.494;6.976;2023-03-14T10:15:47;1.27;;;0.20;;
22894;SDS011;11614;52.494;6.976;2023-03-14T10:18:16;3.67;;;0.30;;
22894;SDS011;11614;52.494;6.976;2023-03-14T10:20:43;8.80;;;0.90;;
22894;SDS011;11614;52.494;6.976;2023-03-14T10:25:38;4.67;;;0.63;;
22894;SDS011;11614;52.494;6.976;2023-03-14T10:28:05;2.13;;;0.23;;
22894;SDS011;11614;52.494;6.976;2023-03-14T10:30:39;5.40;;;0.83;;
22894;SDS011;11614;52.494;6.976;2023-03-14T10:33:28;3.47;;;0.73;;
22894;SDS011;11614;52.494;6.976;2023-03-14T10:35:59;4.00;;;0.77;;
22894;SDS011;11614;52.494;6.976;2023-03-14T10:38:40;5.50;;;1.17;;
22894;SDS011;11614;52.494;6.976;2023-03-14T10:41:19;4.97;;;0.80;;
22894;SDS011;11614;52.494;6.976;2023-03-14T10:43:50;8.70;;;1.17;;
22894;SDS011;11614;52.494;6.976;2023-03-14T10:46:19;4.50;;;1.23;;
22894;SDS011;11614;52.494;6.976;2023-03-14T10:48:45;5.50;;;0.90;;
22894;SDS011;11614;52.494;6.976;2023-03-14T10:56:38;5.93;;;1.20;;
22894;SDS011;11614;52.494;6.976;2023-03-14T10:59:10;12.63;;;2.03;;
22894;SDS011;11614;52.494;6.976;2023-03-14T11:01:41;9.03;;;1.43;;
22894;SDS011;11614;52.494;6.976;2023-03-14T11:09:39;10.13;;;1.87;;
22894;SDS011;11614;52.494;6.976;2023-03-14T11:15:20;6.67;;;1.07;;
22894;SDS011;11614;52.494;6.976;2023-03-14T11:20:42;9.47;;;1.30;;
22894;SDS011;11614;52.494;6.976;2023-03-14T11:23:18;6.77;;;1.00;;
22894;SDS011;11614;52.494;6.976;2023-03-14T11:25:57;12.17;;;1.93;;
22894;SDS011;11614;52.494;6.976;2023-03-14T11:28:46;8.07;;;1.33;;
22894;SDS011;11614;52.494;6.976;2023-03-14T11:31:21;7.53;;;1.00;;
22894;SDS011;11614;52.494;6.976;2023-03-14T11:34:01;9.10;;;0.70;;
22894;SDS011;11614;52.494;6.976;2023-03-14T11:39:11;17.73;;;3.13;;
22894;SDS011;11614;52.494;6.976;2023-03-14T11:41:43;9.30;;;1.30;;
22894;SDS011;11614;52.494;6.976;2023-03-14T11:44:17;14.77;;;2.80;;
22894;SDS011;11614;52.494;6.976;2023-03-14T11:47:10;13.23;;;2.00;;
22894;SDS011;11614;52.494;6.976;2023-03-14T11:49:53;15.53;;;3.67;;
22894;SDS011;11614;52.494;6.976;2023-03-14T11:52:30;11.57;;;2.33;;
22894;SDS011;11614;52.494;6.976;2023-03-14T11:55:05;7.03;;;1.87;;
22894;SDS011;11614;52.494;6.976;2023-03-14T11:57:36;10.33;;;1.97;;
22894;SDS011;11614;52.494;6.976;2023-03-14T12:10:37;8.57;;;1.60;;
22894;SDS011;11614;52.494;6.976;2023-03-14T12:13:04;5.23;;;1.00;;
22894;SDS011;11614;52.494;6.976;2023-03-14T12:15:35;6.43;;;0.80;;
22894;SDS011;11614;52.494;6.976;2023-03-14T12:18:13;13.67;;;1.83;;
22894;SDS011;11614;52.494;6.976;2023-03-14T12:20:56;14.47;;;2.50;;
22894;SDS011;11614;52.494;6.976;2023-03-14T12:23:28;5.20;;;0.80;;
22894;SDS011;11614;52.494;6.976;2023-03-14T12:26:06;10.23;;;2.20;;
22894;SDS011;11614;52.494;6.976;2023-03-14T12:28:44;9.43;;;1.70;;
22894;SDS011;11614;52.494;6.976;2023-03-14T12:31:44;5.17;;;0.97;;
22894;SDS011;11614;52.494;6.976;2023-03-14T12:42:35;2.43;;;0.50;;
22894;SDS011;11614;52.494;6.976;2023-03-14T12:45:31;6.33;;;1.30;;
22894;SDS011;11614;52.494;6.976;2023-03-14T12:48:08;6.50;;;1.20;;
22894;SDS011;11614;52.494;6.976;2023-03-14T12:50:56;6.10;;;1.00;;
22894;SDS011;11614;52.494;6.976;2023-03-14T12:53:34;2.23;;;0.63;;
22894;SDS011;11614;52.494;6.976;2023-03-14T12:56:11;5.90;;;0.97;;
22894;SDS011;11614;52.494;6.976;2023-03-14T12:58:44;7.40;;;1.20;;
22894;SDS011;11614;52.494;6.976;2023-03-14T13:01:15;2.87;;;0.80;;
22894;SDS011;11614;52.494;6.976;2023-03-14T13:03:43;6.60;;;0.63;;
22894;SDS011;11614;52.494;6.976;2023-03-14T13:06:10;6.03;;;1.27;;
22894;SDS011;11614;52.494;6.976;2023-03-14T13:08:40;3.20;;;0.87;;
22894;SDS011;11614;52.494;6.976;2023-03-14T13:11:08;4.53;;;0.50;;
22894;SDS011;11614;52.494;6.976;2023-03-14T13:13:35;4.50;;;1.10;;
22894;SDS011;11614;52.494;6.976;2023-03-14T13:16:02;2.33;;;0.77;;
22894;SDS011;11614;52.494;6.976;2023-03-14T13:18:36;7.27;;;1.77;;
22894;SDS011;11614;52.494;6.976;2023-03-14T13:23:30;1.73;;;0.27;;
22894;SDS011;11614;52.494;6.976;2023-03-14T13:25:56;2.23;;;0.37;;
22894;SDS011;11614;52.494;6.976;2023-03-14T13:28:23;1.87;;;0.43;;
22894;SDS011;11614;52.494;6.976;2023-03-14T13:30:50;12.20;;;0.93;;
22894;SDS011;11614;52.494;6.976;2023-03-14T13:33:21;0.73;;;0.27;;
22894;SDS011;11614;52.494;6.976;2023-03-14T13:35:57;1.67;;;0.60;;
22894;SDS011;11614;52.494;6.976;2023-03-14T13:38:27;5.30;;;0.63;;
22894;SDS011;11614;52.494;6.976;2023-03-14T13:40:54;6.10;;;0.60;;
22894;SDS011;11614;52.494;6.976;2023-03-14T13:43:33;2.37;;;0.53;;
22894;SDS011;11614;52.494;6.976;2023-03-14T13:46:06;2.07;;;0.50;;
22894;SDS011;11614;52.494;6.976;2023-03-14T13:48:34;3.50;;;0.50;;
22894;SDS011;11614;52.494;6.976;2023-03-14T13:53:29;3.20;;;0.33;;
22894;SDS011;11614;52.494;6.976;2023-03-14T13:55:56;2.73;;;0.57;;
22894;SDS011;11614;52.494;6.976;2023-03-14T13:58:23;2.80;;;1.03;;
22894;SDS011;11614;52.494;6.976;2023-03-14T14:00:53;7.27;;;1.17;;
22894;SDS011;11614;52.494;6.976;2023-03-14T14:03:20;6.37;;;1.00;;
22894;SDS011;11614;52.494;6.976;2023-03-14T14:05:46;9.67;;;1.33;;
22894;SDS011;11614;52.494;6.976;2023-03-14T14:08:12;3.57;;;0.90;;
22894;SDS011;11614;52.494;6.976;2023-03-14T14:10:38;3.37;;;0.60;;
22894;SDS011;11614;52.494;6.976;2023-03-14T14:13:05;4.17;;;0.60;;
22894;SDS011;11614;52.494;6.976;2023-03-14T14:15:37;6.00;;;0.90;;
22894;SDS011;11614;52.494;6.976;2023-03-14T14:18:05;1.90;;;0.50;;
22894;SDS011;11614;52.494;6.976;2023-03-14T14:20:33;4.53;;;0.70;;
22894;SDS011;11614;52.494;6.976;2023-03-14T14:23:01;5.37;;;0.40;;
22894;SDS011;11614;52.494;6.976;2023-03-14T14:25:28;5.23;;;1.07;;
22894;SDS011;11614;52.494;6.976;2023-03-14T14:27:55;3.33;;;0.73;;
22894;SDS011;11614;52.494;6.976;2023-03-14T14:32:47;4.20;;;0.73;;
22894;SDS011;11614;52.494;6.976;2023-03-14T14:35:32;4.47;;;1.40;;
22894;SDS011;11614;52.494;6.976;2023-03-14T14:37:59;2.40;;;0.63;;
22894;SDS011;11614;52.494;6.976;2023-03-14T14:40:26;4.07;;;0.43;;
22894;SDS011;11614;52.494;6.976;2023-03-14T14:42:52;1.93;;;0.30;;
22894;SDS011;11614;52.494;6.976;2023-03-14T14:45:19;1.03;;;0.30;;
22894;SDS011;11614;52.494;6.976;2023-03-14T14:47:50;3.67;;;0.73;;
22894;SDS011;11614;52.494;6.976;2023-03-14T14:50:30;3.60;;;0.70;;
22894;SDS011;11614;52.494;6.976;2023-03-14T14:52:57;3.60;;;0.93;;
22894;SDS011;11614;52.494;6.976;2023-03-14T14:55:28;5.13;;;2.70;;
22894;SDS011;11614;52.494;6.976;2023-03-14T14:57:54;2.83;;;1.00;;
22894;SDS011;11614;52.494;6.976;2023-03-14T15:00:24;3.30;;;0.53;;
22894;SDS011;11614;52.494;6.976;2023-03-14T15:02:51;1.67;;;0.70;;
22894;SDS011;11614;52.494;6.976;2023-03-14T15:05:22;1.63;;;0.33;;
22894;SDS011;11614;52.494;6.976;2023-03-14T15:07:48;3.00;;;0.60;;
22894;SDS011;11614;52.494;6.976;2023-03-14T15:10:22;5.60;;;0.60;;
22894;SDS011;11614;52.494;6.976;2023-03-14T15:12:48;3.10;;;0.70;;
22894;SDS011;11614;52.494;6.976;2023-03-14T15:15:15;4.53;;;0.70;;
22894;SDS011;11614;52.494;6.976;2023-03-14T15:17:41;4.17;;;1.50;;
22894;SDS011;11614;52.494;6.976;2023-03-14T15:20:12;3.63;;;1.10;;
22894;SDS011;11614;52.494;6.976;2023-03-14T15:22:38;5.00;;;0.60;;
22894;SDS011;11614;52.494;6.976;2023-03-14T15:25:04;2.30;;;0.53;;
22894;SDS011;11614;52.494;6.976;2023-03-14T15:27:31;2.73;;;0.70;;
22894;SDS011;11614;52.494;6.976;2023-03-14T15:29:57;2.13;;;0.40;;
22894;SDS011;11614;52.494;6.976;2023-03-14T15:32:24;5.20;;;0.67;;
22894;SDS011;11614;52.494;6.976;2023-03-14T15:34:52;2.47;;;0.50;;
22894;SDS011;11614;52.494;6.976;2023-03-14T15:37:18;2.17;;;0.70;;
22894;SDS011;11614;52.494;6.976;2023-03-14T15:39:44;5.13;;;0.60;;
22894;SDS011;11614;52.494;6.976;2023-03-14T15:42:10;1.30;;;0.20;;
22894;SDS011;11614;52.494;6.976;2023-03-14T15:44:36;2.37;;;0.33;;
22894;SDS011;11614;52.494;6.976;2023-03-14T15:47:04;4.20;;;0.50;;
22894;SDS011;11614;52.494;6.976;2023-03-14T15:49:30;2.00;;;0.40;;
22894;SDS011;11614;52.494;6.976;2023-03-14T15:51:57;2.63;;;0.60;;
22894;SDS011;11614;52.494;6.976;2023-03-14T15:54:23;3.50;;;0.90;;